Time;durP1;ratioP1;P1;durP2;ratioP2;P2;SDS_P1;SDS_P2;PMS_P1;PMS_P2;Temp;Humidity;BMP_temperature;BMP_pressure;BME280_temperature;BME280_humidity;BME280_pressure;Samples;Min_cycle;Max_cycle;Signal;HPM_P1;HPM_P2
2021/06/15 00:01:44;;;;;;;1.90;1.80;;;15.30;95.00;;;;;;5044631;28;20021;-80
2021/06/15 00:04:10;;;;;;;2.72;2.28;;;15.20;95.20;;;;;;5049927;28;20017;-83
2021/06/15 00:06:36;;;;;;;1.90;1.80;;;15.30;95.30;;;;;;5049764;28;20029;-84
2021/06/15 00:09:01;;;;;;;2.00;1.90;;;15.30;95.40;;;;;;5049487;28;20383;-83
2021/06/15 00:11:27;;;;;;;1.90;1.80;;;15.30;95.40;;;;;;5054153;28;20369;-83
2021/06/15 00:13:53;;;;;;;2.20;2.10;;;15.30;95.60;;;;;;5053711;28;20519;-83
2021/06/15 00:16:19;;;;;;;2.13;2.00;;;15.30;96.00;;;;;;5053930;28;20063;-83
2021/06/15 00:18:45;;;;;;;1.90;1.80;;;15.30;96.10;;;;;;5036355;28;20416;-80
2021/06/15 00:21:11;;;;;;;1.90;1.80;;;15.30;96.30;;;;;;5054623;28;20021;-82
2021/06/15 00:23:37;;;;;;;1.90;1.80;;;15.30;96.20;;;;;;5054676;28;20025;-81
2021/06/15 00:26:03;;;;;;;1.90;1.80;;;15.30;96.40;;;;;;5036964;28;20027;-77
2021/06/15 00:28:29;;;;;;;9.23;2.75;;;15.40;96.40;;;;;;5054603;28;20399;-80
2021/06/15 00:30:54;;;;;;;1.80;1.70;;;15.60;96.30;;;;;;5054646;28;20025;-78
2021/06/15 00:33:20;;;;;;;1.90;1.80;;;15.60;96.40;;;;;;5054800;28;20096;-84
2021/06/15 00:35:46;;;;;;;1.90;1.80;;;15.50;96.30;;;;;;5054848;28;20353;-82
2021/06/15 00:38:12;;;;;;;4.43;2.55;;;15.40;96.80;;;;;;5054728;28;20426;-83
2021/06/15 00:40:38;;;;;;;1.80;1.70;;;15.40;96.90;;;;;;5054052;28;20017;-82
2021/06/15 00:43:04;;;;;;;1.90;1.80;;;15.60;96.90;;;;;;5035402;28;20070;-80
2021/06/15 00:45:32;;;;;;;1.90;1.80;;;15.60;97.10;;;;;;5053160;28;20419;-82
2021/06/15 00:47:59;;;;;;;1.80;1.70;;;15.50;97.30;;;;;;5052852;28;20044;-79
2021/06/15 00:50:26;;;;;;;1.80;1.70;;;15.40;97.10;;;;;;5053188;28;20476;-82
2021/06/15 00:52:53;;;;;;;2.10;2.00;;;15.40;97.10;;;;;;5053463;28;20029;-84
2021/06/15 00:55:24;;;;;;;1.80;1.70;;;15.40;97.50;;;;;;5052846;28;20016;-83
2021/06/15 00:57:50;;;;;;;1.90;1.80;;;15.40;97.60;;;;;;5053029;28;20100;-83
2021/06/15 01:00:17;;;;;;;2.78;2.58;;;15.40;97.60;;;;;;5035110;28;20476;-81
2021/06/15 01:02:43;;;;;;;1.90;1.80;;;15.40;97.60;;;;;;5036385;28;20031;-80
2021/06/15 01:05:12;;;;;;;2.38;2.22;;;15.40;97.90;;;;;;5054311;28;20120;-81
2021/06/15 01:07:47;;;;;;;1.83;1.73;;;15.60;97.60;;;;;;5054420;28;20033;-82
2021/06/15 01:10:36;;;;;;;1.70;1.60;;;15.70;97.70;;;;;;5054289;28;20021;-82
2021/06/15 01:13:14;;;;;;;1.80;1.70;;;15.70;97.80;;;;;;5054021;28;20396;-86
2021/06/15 01:15:48;;;;;;;1.80;1.70;;;15.70;97.80;;;;;;5053134;28;20096;-84
2021/06/15 01:18:19;;;;;;;1.70;1.60;;;15.70;97.70;;;;;;5051434;28;20009;-81
2021/06/15 01:20:52;;;;;;;1.90;1.80;;;15.80;97.70;;;;;;5052303;28;20416;-82
2021/06/15 01:23:42;;;;;;;2.00;1.90;;;15.80;97.90;;;;;;5060909;28;20052;-84
2021/06/15 01:26:26;;;;;;;1.80;1.70;;;15.60;97.80;;;;;;5056038;28;20491;-83
2021/06/15 01:29:00;;;;;;;1.90;1.80;;;15.50;98.20;;;;;;5056710;28;20058;-81
2021/06/15 01:31:31;;;;;;;4.50;3.65;;;15.60;98.20;;;;;;5056641;28;20098;-79
2021/06/15 01:34:03;;;;;;;1.80;1.70;;;15.60;98.20;;;;;;5054328;28;20005;-78
2021/06/15 01:36:36;;;;;;;1.80;1.70;;;15.70;99.00;;;;;;5037366;28;20059;-82
2021/06/15 01:39:09;;;;;;;2.17;2.08;;;15.60;99.50;;;;;;5050477;28;20028;-79
2021/06/15 01:41:44;;;;;;;2.00;1.90;;;15.50;99.80;;;;;;5051497;28;20383;-78
2021/06/15 01:44:13;;;;;;;1.70;1.60;;;15.40;99.80;;;;;;5057578;28;20031;-83
2021/06/15 01:47:22;;;;;;;1.80;1.70;;;15.50;99.90;;;;;;5052992;28;20463;-82
2021/06/15 01:49:53;;;;;;;1.70;1.60;;;15.50;99.90;;;;;;5046589;28;20045;-80
2021/06/15 01:52:23;;;;;;;1.80;1.70;;;15.50;99.90;;;;;;5053203;28;20388;-85
2021/06/15 01:54:50;;;;;;;1.80;1.70;;;15.50;99.90;;;;;;5035547;28;20460;-81
2021/06/15 01:57:20;;;;;;;1.77;1.67;;;15.50;99.90;;;;;;5053144;28;20568;-82
2021/06/15 01:59:48;;;;;;;15.63;2.92;;;15.50;99.90;;;;;;5034884;28;20044;-84
2021/06/15 02:02:16;;;;;;;1.80;1.70;;;15.50;99.90;;;;;;5053087;28;20025;-82
2021/06/15 02:04:48;;;;;;;1.80;1.70;;;15.50;99.90;;;;;;5035535;28;20025;-80
2021/06/15 02:07:19;;;;;;;2.35;2.15;;;15.60;99.90;;;;;;5053287;28;20036;-79
2021/06/15 02:09:49;;;;;;;1.80;1.70;;;15.50;99.90;;;;;;5052540;28;20021;-80
2021/06/15 02:12:19;;;;;;;1.92;1.83;;;15.50;99.90;;;;;;5035131;28;20114;-79
2021/06/15 02:14:45;;;;;;;1.80;1.70;;;15.40;99.90;;;;;;5053359;28;20477;-83
2021/06/15 02:17:14;;;;;;;2.80;2.60;;;15.30;99.90;;;;;;5052609;28;20462;-81
2021/06/15 02:19:42;;;;;;;2.00;1.90;;;15.20;99.90;;;;;;5052927;28;20013;-81
2021/06/15 02:22:12;;;;;;;1.80;1.70;;;14.90;99.90;;;;;;5053170;28;20463;-80
2021/06/15 02:25:00;;;;;;;1.80;1.70;;;14.90;99.90;;;;;;5052722;28;20364;-81
2021/06/15 02:27:27;;;;;;;1.90;1.80;;;15.00;99.90;;;;;;5034208;28;20064;-81
2021/06/15 02:29:57;;;;;;;1.90;1.80;;;15.00;99.90;;;;;;5052461;28;20021;-77
2021/06/15 02:32:28;;;;;;;1.90;1.80;;;15.10;99.90;;;;;;5051902;28;20416;-82
2021/06/15 02:34:54;;;;;;;;;;;15.00;99.90;;;;;;5052973;28;20029;-80
2021/06/15 02:37:29;;;;;;;1.83;1.73;;;15.00;99.90;;;;;;5069207;28;20248;-81
2021/06/15 02:39:57;;;;;;;1.90;1.80;;;15.20;99.90;;;;;;5072216;28;20009;-81
2021/06/15 02:42:24;;;;;;;1.90;1.80;;;15.30;99.90;;;;;;5072458;28;20025;-84
2021/06/15 02:44:54;;;;;;;1.80;1.70;;;15.40;99.90;;;;;;5072693;28;20016;-84
2021/06/15 02:47:21;;;;;;;2.30;2.10;;;15.40;99.90;;;;;;5072424;28;20039;-79
2021/06/15 02:50:07;;;;;;;1.90;1.80;;;15.20;99.90;;;;;;5071863;28;20280;-76
2021/06/15 02:52:49;;;;;;;1.80;1.70;;;15.00;99.90;;;;;;5072477;28;20113;-82
2021/06/15 02:55:27;;;;;;;1.75;1.65;;;15.00;99.90;;;;;;5071858;28;20434;-82
2021/06/15 02:57:53;;;;;;;1.90;1.80;;;15.30;99.90;;;;;;5071954;28;20052;-83
2021/06/15 03:00:19;;;;;;;1.90;1.80;;;15.30;99.90;;;;;;5071702;28;20055;-82
2021/06/15 03:02:45;;;;;;;1.80;1.70;;;15.00;99.90;;;;;;5053944;28;20413;-81
2021/06/15 03:05:16;;;;;;;1.80;1.70;;;14.90;99.90;;;;;;5071865;28;20720;-84
2021/06/15 03:07:46;;;;;;;1.90;1.80;;;15.00;99.90;;;;;;5068536;28;20341;-83
2021/06/15 03:10:12;;;;;;;1.90;1.80;;;15.20;99.90;;;;;;5052118;28;20021;-80
2021/06/15 03:13:02;;;;;;;1.80;1.70;;;15.30;99.90;;;;;;5051775;28;20029;-82
2021/06/15 03:15:54;;;;;;;2.05;1.95;;;15.30;99.90;;;;;;5051811;28;20017;-82
2021/06/15 03:18:28;;;;;;;1.90;1.80;;;15.10;99.90;;;;;;5047328;28;20316;-82
2021/06/15 03:21:01;;;;;;;1.85;1.75;;;15.20;99.90;;;;;;5051886;28;20476;-80
2021/06/15 03:23:48;;;;;;;1.90;1.80;;;15.00;99.90;;;;;;5051580;28;20033;-83
2021/06/15 03:26:21;;;;;;;1.90;1.80;;;15.10;99.90;;;;;;5032385;28;20021;-81
2021/06/15 03:28:59;;;;;;;1.80;1.70;;;15.10;99.90;;;;;;5029671;28;20028;-84
2021/06/15 03:31:29;;;;;;;2.15;2.03;;;15.20;99.90;;;;;;5033549;28;20033;-84
2021/06/15 03:33:57;;;;;;;3.00;2.27;;;15.10;99.90;;;;;;5051214;28;20155;-81
2021/06/15 03:36:24;;;;;;;3.70;2.50;;;15.20;99.90;;;;;;5068051;28;20390;-82
2021/06/15 03:38:55;;;;;;;1.80;1.70;;;15.30;99.90;;;;;;5053159;28;20020;-82
2021/06/15 03:41:21;;;;;;;;;;;15.30;99.90;;;;;;5071869;28;20057;-82
2021/06/15 03:43:51;;;;;;;1.70;1.60;;;15.30;99.90;;;;;;5070533;28;19900;-81
2021/06/15 03:46:20;;;;;;;1.90;1.80;;;15.30;99.90;;;;;;5071462;28;20013;-81
2021/06/15 03:48:49;;;;;;;1.80;1.70;;;15.30;99.90;;;;;;5070597;28;20044;-83
2021/06/15 03:51:49;;;;;;;1.80;1.70;;;15.40;99.90;;;;;;5071327;28;20035;-81
2021/06/15 03:54:15;;;;;;;1.80;1.70;;;15.40;99.90;;;;;;5049943;28;20375;-84
2021/06/15 03:56:44;;;;;;;2.95;2.03;;;15.50;99.90;;;;;;5053435;28;20293;-83
2021/06/15 03:59:26;;;;;;;2.95;2.75;;;15.50;99.90;;;;;;5071016;28;20013;-79
2021/06/15 04:01:55;;;;;;;1.80;1.70;;;15.50;99.90;;;;;;5071256;28;20016;-83
2021/06/15 04:04:23;;;;;;;2.22;2.08;;;15.10;99.90;;;;;;5053104;28;20344;-83
2021/06/15 04:06:54;;;;;;;1.90;1.80;;;15.10;99.90;;;;;;5071385;28;20171;-83
2021/06/15 04:09:25;;;;;;;1.75;1.65;;;15.00;99.90;;;;;;5070872;28;20017;-82
2021/06/15 04:11:54;;;;;;;1.83;1.73;;;15.00;99.90;;;;;;5071100;28;20115;-84
2021/06/15 04:14:21;;;;;;;1.80;1.70;;;15.00;99.90;;;;;;5053144;28;20525;-83
2021/06/15 04:16:48;;;;;;;4.22;3.58;;;15.00;99.90;;;;;;5071496;28;20028;-83
2021/06/15 04:19:20;;;;;;;1.80;1.70;;;14.90;99.90;;;;;;5070902;28;20433;-80
2021/06/15 04:21:47;;;;;;;1.80;1.70;;;15.00;99.90;;;;;;5071208;28;20356;-80
2021/06/15 04:24:23;;;;;;;1.88;1.77;;;15.30;99.90;;;;;;5070803;28;20111;-84
2021/06/15 04:26:51;;;;;;;3.72;2.38;;;15.40;99.90;;;;;;5071194;28;20020;-83
2021/06/15 04:29:17;;;;;;;1.70;1.60;;;15.30;99.90;;;;;;5052469;28;20483;-83
2021/06/15 04:31:45;;;;;;;1.83;1.73;;;15.30;99.90;;;;;;5052761;28;20395;-83
2021/06/15 04:34:14;;;;;;;1.80;1.70;;;15.40;99.90;;;;;;5070784;28;20356;-82
2021/06/15 04:36:43;;;;;;;1.80;1.70;;;15.50;99.90;;;;;;5049002;28;20119;-83
2021/06/15 04:39:14;;;;;;;1.98;1.88;;;15.50;99.90;;;;;;5050554;28;20035;-79
2021/06/15 04:41:48;;;;;;;2.13;2.03;;;15.70;99.90;;;;;;5050999;28;20029;-85
2021/06/15 04:44:21;;;;;;;1.80;1.70;;;15.90;99.90;;;;;;5050774;28;20448;-83
2021/06/15 04:46:50;;;;;;;1.70;1.60;;;16.00;99.90;;;;;;5050620;28;20025;-80
2021/06/15 04:49:19;;;;;;;1.75;1.65;;;16.10;99.90;;;;;;5050161;28;20073;-83
2021/06/15 04:51:47;;;;;;;1.63;1.52;;;16.00;99.90;;;;;;5050785;28;20124;-83
2021/06/15 04:54:20;;;;;;;2.00;1.90;;;16.10;99.90;;;;;;5050538;28;20345;-84
2021/06/15 04:56:49;;;;;;;1.70;1.60;;;16.30;99.90;;;;;;5053274;28;20025;-82
2021/06/15 04:59:15;;;;;;;1.73;1.63;;;16.40;99.90;;;;;;5054168;28;20353;-82
2021/06/15 05:01:43;;;;;;;1.60;1.50;;;16.20;99.90;;;;;;5054606;28;20349;-81
2021/06/15 05:04:09;;;;;;;1.92;1.83;;;16.30;99.90;;;;;;5054401;28;20021;-82
2021/06/15 05:06:40;;;;;;;1.60;1.50;;;16.50;99.90;;;;;;5054004;28;20025;-82
2021/06/15 05:09:08;;;;;;;1.77;1.67;;;16.60;99.90;;;;;;5053779;28;20029;-78
2021/06/15 05:11:37;;;;;;;1.70;1.60;;;16.60;99.90;;;;;;5054533;28;20033;-85
2021/06/15 05:14:06;;;;;;;1.60;1.50;;;16.70;99.90;;;;;;5036004;28;20488;-82
2021/06/15 05:16:33;;;;;;;1.80;1.70;;;16.80;99.90;;;;;;5054066;28;20399;-83
2021/06/15 05:18:59;;;;;;;1.80;1.70;;;16.80;99.90;;;;;;5053833;28;20462;-83
2021/06/15 05:21:33;;;;;;;1.67;1.58;;;16.70;99.90;;;;;;5036082;28;20040;-83
2021/06/15 05:24:03;;;;;;;31.80;2.85;;;16.80;99.90;;;;;;5035486;28;20025;-84
2021/06/15 05:26:30;;;;;;;;;;;16.80;99.90;;;;;;5036252;28;20036;-84
2021/06/15 05:28:56;;;;;;;1.60;1.50;;;16.90;99.90;;;;;;5053356;28;19911;-85
2021/06/15 05:31:21;;;;;;;1.50;1.40;;;16.90;99.90;;;;;;5053815;28;20021;-84
2021/06/15 05:33:47;;;;;;;2.22;2.10;;;16.80;99.90;;;;;;5053143;28;20486;-82
2021/06/15 05:36:13;;;;;;;1.80;1.70;;;16.90;99.90;;;;;;5066017;28;20025;-82
2021/06/15 05:38:39;;;;;;;7.80;1.88;;;16.90;99.90;;;;;;5072808;28;20032;-82
2021/06/15 05:41:05;;;;;;;1.80;1.70;;;17.00;99.90;;;;;;5054003;28;20029;-81
2021/06/15 05:43:30;;;;;;;2.33;2.13;;;17.30;99.90;;;;;;5053364;28;20025;-82
2021/06/15 05:45:56;;;;;;;1.85;1.67;;;17.40;99.90;;;;;;5053737;28;20052;-83
2021/06/15 05:48:22;;;;;;;1.52;1.42;;;17.50;99.50;;;;;;5053118;28;20115;-79
2021/06/15 05:50:49;;;;;;;4.50;2.08;;;17.50;99.30;;;;;;5053316;28;20431;-82
2021/06/15 05:53:16;;;;;;;1.10;1.10;;;17.50;99.60;;;;;;5053419;28;20028;-84
2021/06/15 05:55:41;;;;;;;1.52;1.42;;;17.50;99.20;;;;;;5053465;28;20355;-85
2021/06/15 05:58:07;;;;;;;1.60;1.50;;;17.70;99.10;;;;;;5053237;28;20647;-83
2021/06/15 06:00:33;;;;;;;1.40;1.30;;;17.80;98.70;;;;;;5035564;28;20086;-83
2021/06/15 06:02:59;;;;;;;1.67;1.58;;;17.80;98.70;;;;;;5052872;28;20025;-86
2021/06/15 06:08:10;;;;;;;1.60;1.50;;;18.10;98.50;;;;;;5052577;28;20380;-86
2021/06/15 06:10:39;;;;;;;2.08;1.98;;;18.30;98.00;;;;;;5053238;28;20029;-82
2021/06/15 06:13:07;;;;;;;1.20;1.10;;;18.50;97.70;;;;;;5052787;28;20051;-83
2021/06/15 06:15:34;;;;;;;1.20;1.10;;;18.40;96.90;;;;;;5053089;28;20033;-78
2021/06/15 06:18:06;;;;;;;1.50;1.40;;;18.10;96.50;;;;;;5052613;28;20014;-84
2021/06/15 06:20:32;;;;;;;2.30;2.10;;;18.20;96.60;;;;;;5035143;28;20368;-83
2021/06/15 06:22:59;;;;;;;1.95;1.85;;;18.40;96.70;;;;;;5034713;28;20464;-84
2021/06/15 06:25:27;;;;;;;1.10;1.10;;;18.30;96.80;;;;;;5034767;28;20104;-83
2021/06/15 06:27:53;;;;;;;1.30;1.20;;;18.20;96.20;;;;;;5052671;28;20047;-84
2021/06/15 06:30:20;;;;;;;1.13;1.10;;;18.40;95.60;;;;;;5052712;28;20372;-84
2021/06/15 06:32:46;;;;;;;1.10;1.10;;;18.50;95.20;;;;;;5052265;28;20020;-84
2021/06/15 06:35:12;;;;;;;1.10;1.10;;;18.60;95.40;;;;;;5052319;28;20026;-81
2021/06/15 06:37:37;;;;;;;1.30;1.20;;;18.30;94.40;;;;;;5052993;28;20032;-85
2021/06/15 06:40:04;;;;;;;1.30;1.20;;;17.80;94.90;;;;;;5052395;28;20032;-78
2021/06/15 06:42:30;;;;;;;1.10;1.10;;;18.00;95.00;;;;;;5052650;28;20103;-80
2021/06/15 06:44:56;;;;;;;1.10;1.10;;;18.20;95.00;;;;;;5052445;28;20021;-81
2021/06/15 06:47:22;;;;;;;1.10;1.10;;;18.00;94.40;;;;;;5052370;28;20465;-81
2021/06/15 06:49:48;;;;;;;3.35;2.20;;;18.10;93.90;;;;;;5052336;28;20396;-87
2021/06/15 06:52:14;;;;;;;1.30;1.20;;;17.60;94.40;;;;;;5034518;28;20043;-80
2021/06/15 06:54:39;;;;;;;1.30;1.20;;;17.50;94.10;;;;;;5052235;28;20021;-88
2021/06/15 06:57:05;;;;;;;1.30;1.20;;;17.50;94.50;;;;;;5034121;28;20456;-83
2021/06/15 06:59:31;;;;;;;1.10;1.10;;;17.30;93.80;;;;;;5052128;28;20013;-85
2021/06/15 07:01:57;;;;;;;1.70;1.60;;;17.50;94.10;;;;;;5051801;28;20028;-82
2021/06/15 07:04:22;;;;;;;2.65;2.45;;;17.60;94.00;;;;;;5051791;28;20583;-84
2021/06/15 07:06:49;;;;;;;1.40;1.30;;;17.60;94.40;;;;;;5051904;28;20112;-80
2021/06/15 07:09:14;;;;;;;1.60;1.50;;;17.50;94.60;;;;;;5051963;28;20056;-81
2021/06/15 07:11:40;;;;;;;1.40;1.30;;;17.60;94.40;;;;;;5051619;28;20110;-81
2021/06/15 07:14:06;;;;;;;1.40;1.30;;;17.50;94.20;;;;;;5051625;28;20112;-78
2021/06/15 07:16:32;;;;;;;2.25;2.05;;;17.50;93.80;;;;;;5030526;28;20483;-78
2021/06/15 07:18:57;;;;;;;1.30;1.20;;;17.80;93.60;;;;;;5047324;28;20161;-77
2021/06/15 07:21:23;;;;;;;1.30;1.20;;;17.90;93.20;;;;;;5051232;28;20024;-82
2021/06/15 07:23:49;;;;;;;1.30;1.20;;;18.20;93.00;;;;;;5030879;28;20048;-82
2021/06/15 07:26:15;;;;;;;1.30;1.20;;;18.20;92.70;;;;;;5049959;28;20021;-82
2021/06/15 07:28:41;;;;;;;1.45;1.35;;;18.00;93.30;;;;;;5051312;28;20031;-81
2021/06/15 07:31:07;;;;;;;1.30;1.20;;;18.10;93.10;;;;;;5051527;28;20025;-81
2021/06/15 07:33:32;;;;;;;1.98;1.88;;;18.20;93.30;;;;;;5051983;28;20449;-81
2021/06/15 07:35:58;;;;;;;1.73;1.63;;;18.30;93.10;;;;;;5058325;28;20020;-84
2021/06/15 07:38:24;;;;;;;1.33;1.23;;;18.10;93.60;;;;;;5053530;28;20024;-83
2021/06/15 07:40:50;;;;;;;1.30;1.20;;;17.90;93.70;;;;;;5053816;28;20120;-80
2021/06/15 07:43:16;;;;;;;1.20;1.10;;;18.30;93.60;;;;;;5053050;28;20013;-81
2021/06/15 07:45:42;;;;;;;1.10;1.10;;;18.30;93.00;;;;;;5071467;28;20363;-79
2021/06/15 07:48:08;;;;;;;1.20;1.10;;;18.10;92.80;;;;;;5071037;28;20016;-79
2021/06/15 07:50:34;;;;;;;1.35;1.25;;;17.90;93.00;;;;;;5070879;28;20378;-80
2021/06/15 07:53:00;;;;;;;1.20;1.10;;;17.90;92.70;;;;;;5071627;28;20037;-84
2021/06/15 07:55:26;;;;;;;1.30;1.20;;;18.00;92.50;;;;;;5071240;28;20023;-79
2021/06/15 07:57:51;;;;;;;1.30;1.20;;;18.10;92.50;;;;;;5070477;28;20027;-81
2021/06/15 08:00:18;;;;;;;8.02;2.15;;;18.30;92.60;;;;;;5071040;28;20017;-84
2021/06/15 08:02:45;;;;;;;1.50;1.40;;;18.10;92.00;;;;;;5071008;28;20020;-83
2021/06/15 08:05:12;;;;;;;1.30;1.20;;;18.10;92.00;;;;;;5053347;28;20021;-87
2021/06/15 08:07:38;;;;;;;1.08;1.08;;;18.20;92.00;;;;;;5071149;28;20028;-85
2021/06/15 08:10:05;;;;;;;2.10;1.90;;;18.60;91.70;;;;;;5053248;28;20052;-84
2021/06/15 08:12:31;;;;;;;1.10;1.10;;;18.60;91.50;;;;;;5052984;28;20028;-81
2021/06/15 08:14:57;;;;;;;1.10;1.10;;;18.70;90.90;;;;;;5070755;28;20417;-86
2021/06/15 08:17:23;;;;;;;2.05;1.85;;;18.40;90.70;;;;;;5070807;28;20056;-82
2021/06/15 08:19:49;;;;;;;1.65;1.55;;;18.70;89.80;;;;;;5053251;28;20044;-82
2021/06/15 08:22:15;;;;;;;1.10;1.10;;;18.60;89.30;;;;;;5053091;28;20432;-89
2021/06/15 08:24:41;;;;;;;1.00;1.00;;;18.60;89.70;;;;;;5072128;28;20484;-85
2021/06/15 08:27:09;;;;;;;1.02;1.02;;;18.60;89.50;;;;;;5053525;28;20040;-79
2021/06/15 08:29:35;;;;;;;11.55;2.75;;;18.60;90.00;;;;;;5068809;28;20044;-86
2021/06/15 08:32:01;;;;;;;1.10;1.10;;;18.80;89.70;;;;;;5054640;28;20079;-83
2021/06/15 08:34:27;;;;;;;1.10;1.10;;;18.90;90.70;;;;;;5073687;28;20024;-85
2021/06/15 08:36:53;;;;;;;1.30;1.20;;;19.20;90.50;;;;;;5053859;28;20032;-86
2021/06/15 08:39:19;;;;;;;1.58;1.48;;;19.50;90.00;;;;;;5053773;28;20048;-82
2021/06/15 08:41:45;;;;;;;1.00;1.00;;;19.60;90.00;;;;;;5053386;28;20440;-86
2021/06/15 08:44:11;;;;;;;1.00;1.00;;;19.60;89.00;;;;;;5054233;28;20417;-79
2021/06/15 08:46:37;;;;;;;1.10;1.10;;;19.50;88.20;;;;;;5054295;28;20021;-84
2021/06/15 08:49:05;;;;;;;1.00;1.00;;;19.60;88.30;;;;;;5036737;28;20045;-84
2021/06/15 08:51:30;;;;;;;1.23;1.13;;;19.60;88.20;;;;;;5054401;28;20028;-84
2021/06/15 08:54:03;;;;;;;1.60;1.50;;;19.70;87.90;;;;;;5036640;28;20415;-83
2021/06/15 08:56:32;;;;;;;1.40;1.30;;;19.90;87.50;;;;;;5054448;28;20028;-86
2021/06/15 08:59:20;;;;;;;0.90;0.90;;;20.10;88.30;;;;;;5054142;28;20012;-84
2021/06/15 09:01:52;;;;;;;1.00;1.00;;;20.50;86.90;;;;;;5054763;28;20397;-88
2021/06/15 09:04:18;;;;;;;0.90;0.90;;;20.60;84.60;;;;;;5037075;28;20399;-88
2021/06/15 09:06:45;;;;;;;0.90;0.90;;;20.70;84.50;;;;;;5054647;28;20021;-87
2021/06/15 09:09:11;;;;;;;1.27;1.17;;;20.80;83.80;;;;;;5054575;28;20021;-86
2021/06/15 09:11:55;;;;;;;0.98;0.98;;;20.80;81.80;;;;;;5054373;28;20159;-86
2021/06/15 09:14:53;;;;;;;1.10;1.00;;;21.00;83.30;;;;;;5036939;28;20024;-85
2021/06/15 09:17:28;;;;;;;0.80;0.80;;;20.80;82.60;;;;;;5054321;28;20017;-88
2021/06/15 09:20:11;;;;;;;1.13;1.05;;;20.90;80.20;;;;;;5054877;28;20143;-85
2021/06/15 09:22:38;;;;;;;1.85;1.02;;;21.00;80.50;;;;;;5054433;28;20068;-87
2021/06/15 09:25:07;;;;;;;0.82;0.82;;;21.10;80.80;;;;;;5036756;28;20025;-84
2021/06/15 09:27:34;;;;;;;0.80;0.80;;;21.40;81.80;;;;;;5033689;28;20456;-83
2021/06/15 09:30:05;;;;;;;0.80;0.80;;;21.80;81.90;;;;;;5052741;28;20075;-87
2021/06/15 09:32:37;;;;;;;2.58;1.33;;;21.20;80.20;;;;;;5043608;28;20147;-87
2021/06/15 09:35:09;;;;;;;0.80;0.80;;;21.20;81.80;;;;;;5035799;28;20028;-86
2021/06/15 09:37:47;;;;;;;1.23;1.15;;;21.00;80.70;;;;;;5053593;28;20029;-87
2021/06/15 09:40:33;;;;;;;3.25;2.15;;;21.10;81.20;;;;;;5051495;28;20121;-87
2021/06/15 09:43:12;;;;;;;3.33;1.95;;;21.00;79.30;;;;;;5033455;28;20458;-89
2021/06/15 09:45:43;;;;;;;0.90;0.90;;;21.50;79.10;;;;;;5042893;28;20033;-88
2021/06/15 09:48:35;;;;;;;0.85;0.85;;;21.70;76.30;;;;;;5051536;28;20017;-93
2021/06/15 09:51:04;;;;;;;0.77;0.77;;;21.80;77.00;;;;;;5027815;28;20125;-91
2021/06/15 09:53:35;;;;;;;0.90;0.90;;;21.10;76.60;;;;;;5052411;28;20053;-85
2021/06/15 09:56:04;;;;;;;0.90;0.90;;;20.70;77.30;;;;;;5055047;28;20017;-88
2021/06/15 09:58:52;;;;;;;0.80;0.80;;;20.40;79.80;;;;;;5037570;28;20486;-91
2021/06/15 10:01:39;;;;;;;0.80;0.80;;;20.80;79.00;;;;;;5036892;28;20127;-86
2021/06/15 10:04:25;;;;;;;1.35;1.25;;;20.90;77.70;;;;;;5053912;28;20009;-90
2021/06/15 10:06:54;;;;;;;0.90;0.90;;;21.00;77.70;;;;;;5044629;28;20356;-85
2021/06/15 10:09:34;;;;;;;1.20;1.10;;;21.20;78.00;;;;;;5035118;28;20020;-88
2021/06/15 10:12:02;;;;;;;1.23;1.13;;;21.50;78.10;;;;;;5034885;28;20487;-86
2021/06/15 10:23:28;;;;;;;0.90;0.90;;;21.40;78.10;;;;;;5120125;23;20086;-87
2021/06/15 10:28:40;;;;;;;0.75;0.75;;;21.60;79.70;;;;;;4953546;28;20110;-83
2021/06/15 10:31:06;;;;;;;0.80;0.80;;;21.70;78.10;;;;;;4956108;28;20058;-88
2021/06/15 10:34:07;;;;;;;0.77;0.77;;;21.20;77.50;;;;;;4955406;29;20023;-84
2021/06/15 10:36:38;;;;;;;;;;;21.00;78.10;;;;;;4947795;28;20124;-80
2021/06/15 10:39:07;;;;;;;0.95;0.93;;;20.70;76.80;;;;;;4937370;29;19914;-85
2021/06/15 10:41:33;;;;;;;0.80;0.80;;;21.30;78.30;;;;;;4954846;29;20100;-86
2021/06/15 10:44:00;;;;;;;0.93;0.90;;;21.60;77.40;;;;;;4953843;29;20405;-84
2021/06/15 10:46:34;;;;;;;0.90;0.90;;;22.30;76.00;;;;;;4952687;29;20049;-82
2021/06/15 10:49:26;;;;;;;0.80;0.80;;;22.60;75.10;;;;;;4935476;29;20023;-82
2021/06/15 10:51:55;;;;;;;0.70;0.70;;;22.80;72.80;;;;;;4953732;29;20139;-82
2021/06/15 10:54:40;;;;;;;1.55;1.45;;;23.10;71.40;;;;;;4953492;28;20094;-82
2021/06/15 10:57:28;;;;;;;0.90;0.90;;;23.40;70.50;;;;;;4953888;29;20074;-85
2021/06/15 11:00:25;;;;;;;0.80;0.80;;;23.60;70.00;;;;;;4937023;29;20062;-87
2021/06/15 11:03:17;;;;;;;0.93;0.90;;;23.80;70.50;;;;;;4950865;29;20490;-87
2021/06/15 11:05:59;;;;;;;0.60;0.60;;;23.40;68.60;;;;;;4943467;29;20379;-87
2021/06/15 11:08:34;;;;;;;1.40;1.30;;;23.00;66.80;;;;;;4953991;29;20016;-87
2021/06/15 11:11:17;;;;;;;0.63;0.63;;;22.50;69.30;;;;;;4954296;29;20027;-86
2021/06/15 11:13:54;;;;;;;1.23;1.13;;;22.80;69.80;;;;;;4953816;29;20482;-86
2021/06/15 11:16:24;;;;;;;0.70;0.70;;;22.80;69.60;;;;;;4936964;29;20027;-87
2021/06/15 11:19:09;;;;;;;0.70;0.70;;;22.90;69.80;;;;;;4936892;29;20441;-87
2021/06/15 11:21:46;;;;;;;0.60;0.60;;;22.80;69.40;;;;;;4954171;28;20102;-87
2021/06/15 11:24:24;;;;;;;1.55;1.45;;;22.70;68.90;;;;;;4936398;29;20032;-87
2021/06/15 11:26:57;;;;;;;1.20;1.10;;;22.90;69.80;;;;;;4936957;29;20035;-87
2021/06/15 11:29:31;;;;;;;0.95;0.95;;;23.20;67.70;;;;;;4936504;28;20078;-89
2021/06/15 11:32:15;;;;;;;0.85;0.85;;;23.30;67.80;;;;;;4920985;29;20098;-85
2021/06/15 11:34:54;;;;;;;0.75;0.75;;;23.20;66.80;;;;;;4953986;29;20508;-86
2021/06/15 11:37:22;;;;;;;0.73;0.73;;;23.40;66.20;;;;;;4953801;29;20034;-88
2021/06/15 11:39:49;;;;;;;0.60;0.60;;;23.50;66.80;;;;;;4936537;29;20114;-88
2021/06/15 11:42:25;;;;;;;0.68;0.68;;;24.10;66.10;;;;;;4952262;29;20046;-82
2021/06/15 11:45:07;;;;;;;0.50;0.50;;;24.50;65.60;;;;;;4953596;29;20027;-85
2021/06/15 11:47:39;;;;;;;0.90;0.85;;;24.60;63.70;;;;;;4953537;29;20012;-87
2021/06/15 11:50:12;;;;;;;0.80;0.80;;;24.60;64.10;;;;;;4953699;29;20038;-84
2021/06/15 11:52:40;;;;;;;1.35;1.25;;;24.60;63.00;;;;;;4953883;29;20023;-87
2021/06/15 11:55:08;;;;;;;0.75;0.75;;;24.80;62.40;;;;;;4953448;29;20029;-88
2021/06/15 11:57:34;;;;;;;0.75;0.75;;;24.40;62.00;;;;;;4954069;29;20035;-88
2021/06/15 12:00:00;;;;;;;0.50;0.50;;;24.40;62.40;;;;;;4953916;29;20097;-87
2021/06/15 12:02:27;;;;;;;0.50;0.50;;;24.50;61.90;;;;;;4953366;29;20419;-84
2021/06/15 12:05:09;;;;;;;1.23;0.80;;;24.70;61.40;;;;;;4952651;28;20052;-86
2021/06/15 12:07:38;;;;;;;0.75;0.75;;;24.70;61.60;;;;;;4953405;29;20036;-87
2021/06/15 12:10:15;;;;;;;0.40;0.40;;;25.40;61.40;;;;;;4936228;29;20024;-88
2021/06/15 12:13:18;;;;;;;1.15;0.88;;;24.90;61.70;;;;;;4936308;29;20130;-81
2021/06/15 12:16:01;;;;;;;1.02;1.02;;;25.50;61.40;;;;;;4937451;29;20031;-82
2021/06/15 12:18:31;;;;;;;0.82;0.82;;;25.80;60.00;;;;;;4953664;29;20099;-89
2021/06/15 12:21:09;;;;;;;0.98;0.98;;;24.90;59.50;;;;;;4953752;29;20447;-83
2021/06/15 12:23:42;;;;;;;1.17;1.15;;;25.50;60.10;;;;;;4953392;28;20391;-83
2021/06/15 12:26:26;;;;;;;0.95;0.90;;;25.40;59.00;;;;;;4952395;29;20024;-87
2021/06/15 12:28:58;;;;;;;0.82;0.82;;;24.50;59.30;;;;;;4953526;29;20023;-88
2021/06/15 12:31:26;;;;;;;0.40;0.40;;;25.10;60.20;;;;;;4953833;28;20275;-87
2021/06/15 12:33:57;;;;;;;0.40;0.40;;;25.30;59.70;;;;;;4953204;29;20019;-88
2021/06/15 12:36:26;;;;;;;0.60;0.60;;;25.90;59.70;;;;;;4947897;28;20431;-88
2021/06/15 12:38:52;;;;;;;0.50;0.50;;;25.50;59.50;;;;;;4972126;28;20057;-81
2021/06/15 12:41:23;;;;;;;1.08;0.98;;;24.80;60.10;;;;;;4961458;28;20030;-88
2021/06/15 12:43:52;;;;;;;0.70;0.70;;;23.80;60.60;;;;;;4946589;28;20062;-89
2021/06/15 12:46:29;;;;;;;1.70;1.60;;;23.70;62.20;;;;;;4970696;28;20031;-86
2021/06/15 12:48:58;;;;;;;1.30;1.20;;;23.80;62.00;;;;;;4963472;28;20448;-88
2021/06/15 12:51:29;;;;;;;1.80;0.95;;;23.70;62.50;;;;;;4961726;28;20070;-89
2021/06/15 12:54:02;;;;;;;0.60;0.60;;;23.80;63.10;;;;;;4983968;28;20019;-89
2021/06/15 12:56:32;;;;;;;2.15;1.95;;;24.00;63.30;;;;;;4963939;28;20497;-90
2021/06/15 12:59:12;;;;;;;2.30;2.10;;;23.90;61.80;;;;;;4955481;28;20035;-90
2021/06/15 13:01:38;;;;;;;4.55;2.83;;;23.90;62.30;;;;;;4959859;28;20035;-84
2021/06/15 13:04:21;;;;;;;1.10;1.00;;;24.00;62.50;;;;;;4963814;28;20023;-89
2021/06/15 13:06:48;;;;;;;0.85;0.85;;;23.90;61.80;;;;;;4971179;28;20026;-89
2021/06/15 13:09:16;;;;;;;0.60;0.60;;;23.80;62.70;;;;;;4973766;28;20026;-87
2021/06/15 13:12:05;;;;;;;1.83;1.70;;;23.40;62.60;;;;;;4946595;28;20039;-89
2021/06/15 13:14:40;;;;;;;0.60;0.60;;;23.30;63.70;;;;;;4975990;28;20038;-89
2021/06/15 13:17:08;;;;;;;0.82;0.80;;;23.10;63.40;;;;;;4964389;28;20027;-91
2021/06/15 13:19:46;;;;;;;0.63;0.63;;;23.40;64.50;;;;;;4987893;28;20026;-90
2021/06/15 13:22:29;;;;;;;0.90;0.90;;;23.60;64.20;;;;;;4984772;28;20113;-87